createdAt,value
2023-11-18T00:01:11.726Z,98241.59
2023-11-18T00:03:38.579Z,98233.75
2023-11-18T00:06:05.738Z,98242.50
2023-11-18T00:08:32.588Z,98239.00
2023-11-18T00:10:59.362Z,98244.16
2023-11-18T00:13:27.590Z,98240.56
2023-11-18T00:15:54.398Z,98240.50
2023-11-18T00:18:21.203Z,98252.09
2023-11-18T00:20:48.314Z,98249.47
2023-11-18T00:23:18.084Z,98254.91
2023-11-18T00:25:46.511Z,98247.84
2023-11-18T00:28:13.305Z,98255.91
2023-11-18T00:30:41.332Z,98254.97
2023-11-18T00:33:10.311Z,98251.53
2023-11-18T00:35:37.225Z,98263.09
2023-11-18T00:38:04.130Z,98258.84
2023-11-18T00:40:33.301Z,98259.81
2023-11-18T00:42:59.999Z,98266.91
2023-11-18T00:45:26.742Z,98267.88
2023-11-18T00:47:53.525Z,98266.13
2023-11-18T00:50:21.313Z,98275.69
2023-11-18T00:52:52.123Z,98270.22
2023-11-18T00:55:19.296Z,98258.56
2023-11-18T00:57:46.528Z,98259.28
2023-11-18T01:00:15.747Z,98263.63
2023-11-18T01:02:43.723Z,98257.28
2023-11-18T01:05:12.242Z,98266.13
2023-11-18T01:07:39.644Z,98262.59
2023-11-18T01:10:07.502Z,98261.59
2023-11-18T01:12:35.073Z,98259.94
2023-11-18T01:15:02.085Z,98264.47
2023-11-18T01:17:28.841Z,98254.75
2023-11-18T01:19:56.157Z,98255.03
2023-11-18T01:22:23.274Z,98254.31
2023-11-18T01:24:50.025Z,98250.88
2023-11-18T01:27:16.854Z,98252.50
2023-11-18T01:29:43.718Z,98256.84
2023-11-18T01:32:10.992Z,98246.03
2023-11-18T01:34:41.198Z,98253.88
2023-11-18T01:37:11.152Z,98243.25
2023-11-18T01:39:38.138Z,98245.47
2023-11-18T01:42:05.238Z,98249.41
2023-11-18T01:44:32.274Z,98244.25
2023-11-18T01:46:59.766Z,98246.91
2023-11-18T01:49:28.791Z,98248.63
2023-11-18T01:51:57.883Z,98242.22
2023-11-18T01:54:25.129Z,98241.16
2023-11-18T01:56:56.425Z,98237.50
2023-11-18T01:59:24.201Z,98239.38
2023-11-18T02:01:55.305Z,98240.28
2023-11-18T02:04:25.098Z,98237.72
2023-11-18T02:06:53.924Z,98249.28
2023-11-18T02:09:28.757Z,98246.75
2023-11-18T02:11:58.491Z,98246.84
2023-11-18T02:14:28.581Z,98249.66
2023-11-18T02:17:00.411Z,98246.91
2023-11-18T02:19:28.060Z,98250.66
2023-11-18T02:21:55.771Z,98245.47
2023-11-18T02:24:28.105Z,98251.09
2023-11-18T02:26:58.006Z,98248.63
2023-11-18T02:29:26.206Z,98258.47
2023-11-18T02:31:59.861Z,98256.69
2023-11-18T02:34:32.705Z,98261.00
2023-11-18T02:37:04.655Z,98263.38
2023-11-18T02:39:40.756Z,98256.91
2023-11-18T02:42:11.999Z,98262.00
2023-11-18T02:44:39.585Z,98266.19
2023-11-18T02:47:06.659Z,98273.13
2023-11-18T02:49:36.325Z,98275.56
2023-11-18T02:52:05.794Z,98264.78
2023-11-18T02:54:32.515Z,98272.66
2023-11-18T02:57:00.119Z,98276.94
2023-11-18T02:59:31.429Z,98280.53
2023-11-18T03:01:58.282Z,98270.72
2023-11-18T03:04:27.101Z,98278.66
2023-11-18T03:06:53.828Z,98282.94
2023-11-18T03:09:20.689Z,98281.19
2023-11-18T03:11:47.462Z,98280.28
2023-11-18T03:14:14.425Z,98282.25
2023-11-18T03:16:41.410Z,98285.00
2023-11-18T03:19:10.124Z,98285.19
2023-11-18T03:21:37.903Z,98290.50
2023-11-18T03:24:05.141Z,98283.31
2023-11-18T03:26:33.728Z,98288.50
2023-11-18T03:29:00.701Z,98282.25
2023-11-18T03:31:28.364Z,98293.72
2023-11-18T03:33:57.550Z,98296.19
2023-11-18T03:36:24.331Z,98297.00
2023-11-18T03:38:51.043Z,98299.56
2023-11-18T03:41:17.743Z,98288.00
2023-11-18T03:43:44.507Z,98290.75
2023-11-18T03:46:12.057Z,98299.59
2023-11-18T03:48:39.053Z,98292.75
2023-11-18T03:51:05.936Z,98307.94
2023-11-18T03:53:35.037Z,98302.75
2023-11-18T03:56:03.458Z,98301.16
2023-11-18T03:58:30.534Z,98295.13
2023-11-18T04:01:01.404Z,98311.44
2023-11-18T04:03:28.286Z,98315.25
2023-11-18T04:05:54.981Z,98312.69
2023-11-18T04:08:22.596Z,98312.75
2023-11-18T04:10:49.345Z,98317.22
2023-11-18T04:13:16.248Z,98318.19
2023-11-18T04:15:43.076Z,98317.22
2023-11-18T04:18:09.838Z,98317.28
2023-11-18T04:20:36.585Z,98323.75
2023-11-18T04:23:03.348Z,98322.16
2023-11-18T04:25:35.957Z,98317.69
2023-11-18T04:28:02.704Z,98320.28
2023-11-18T04:30:30.611Z,98329.84
2023-11-18T04:32:57.337Z,98321.75
2023-11-18T04:35:25.716Z,98326.78
2023-11-18T04:37:52.624Z,98326.56
2023-11-18T04:40:19.397Z,98332.56
2023-11-18T04:42:46.226Z,98319.16
2023-11-18T04:45:15.658Z,98319.97
2023-11-18T04:47:44.507Z,98316.34
2023-11-18T04:50:12.464Z,98329.66
2023-11-18T04:52:39.317Z,98327.72
2023-11-18T04:55:07.136Z,98325.78
2023-11-18T04:57:34.200Z,98323.13
2023-11-18T05:00:11.276Z,98320.59
2023-11-18T05:02:41.888Z,98325.84
2023-11-18T05:05:09.260Z,98310.91
2023-11-18T05:07:36.900Z,98318.94
2023-11-18T05:10:09.442Z,98325.22
2023-11-18T05:12:36.203Z,98322.47
2023-11-18T05:15:07.456Z,98329.38
2023-11-18T05:17:40.317Z,98328.38
2023-11-18T05:20:12.400Z,98332.84
2023-11-18T05:22:39.505Z,98334.78
2023-11-18T05:25:06.764Z,98335.00
2023-11-18T05:27:35.007Z,98341.34
2023-11-18T05:30:04.445Z,98333.41
2023-11-18T05:32:35.634Z,98341.34
2023-11-18T05:35:05.067Z,98347.50
2023-11-18T05:37:36.421Z,98340.53
2023-11-18T05:40:08.624Z,98347.72
2023-11-18T05:42:43.140Z,98347.06
2023-11-18T05:45:18.627Z,98355.41
2023-11-18T05:47:45.781Z,98362.94
2023-11-18T05:50:12.911Z,98367.69
2023-11-18T05:52:39.642Z,98373.19
2023-11-18T05:55:07.601Z,98381.44
2023-11-18T05:57:37.747Z,98373.78
2023-11-18T06:00:07.502Z,98376.44
2023-11-18T06:02:35.564Z,98387.09
2023-11-18T06:05:06.071Z,98380.03
2023-11-18T06:07:32.824Z,98393.47
2023-11-18T06:09:59.608Z,98398.97
2023-11-18T06:12:28.067Z,98394.78
2023-11-18T06:14:54.802Z,98402.09
2023-11-18T06:17:22.998Z,98406.63
2023-11-18T06:19:50.690Z,98414.66
2023-11-18T06:22:17.540Z,98412.91
2023-11-18T06:24:44.231Z,98429.03
2023-11-18T06:27:11.354Z,98423.56
2023-11-18T06:29:38.046Z,98425.25
2023-11-18T06:32:07.236Z,98416.31
2023-11-18T06:34:34.230Z,98441.19
2023-11-18T06:37:01.047Z,98428.66
2023-11-18T06:39:31.014Z,98427.50
2023-11-18T06:41:59.582Z,98429.25
2023-11-18T06:44:26.468Z,98435.34
2023-11-18T06:46:53.423Z,98449.41
2023-11-18T06:49:20.922Z,98443.13
2023-11-18T06:51:48.914Z,98459.19
2023-11-18T06:54:15.770Z,98460.91
2023-11-18T06:56:44.753Z,98461.69
2023-11-18T06:59:14.450Z,98469.34
2023-11-18T07:01:44.199Z,98464.03
2023-11-18T07:04:11.478Z,98467.31
2023-11-18T07:06:39.690Z,98462.59
2023-11-18T07:09:14.276Z,98472.13
2023-11-18T07:11:42.282Z,98477.38
2023-11-18T07:14:12.208Z,98478.28
2023-11-18T07:16:40.356Z,98485.16
2023-11-18T07:19:08.459Z,98481.56
2023-11-18T07:21:36.004Z,98481.47
2023-11-18T07:24:13.350Z,98478.59
2023-11-18T07:26:48.610Z,98480.19
2023-11-18T07:29:17.497Z,98475.47
2023-11-18T07:31:51.301Z,98482.41
2023-11-18T07:34:18.138Z,98483.97
2023-11-18T07:36:47.476Z,98478.50
2023-11-18T07:39:17.319Z,98485.56
2023-11-18T07:41:44.339Z,98487.31
2023-11-18T07:44:14.444Z,98480.47
2023-11-18T07:46:44.523Z,98485.00
2023-11-18T07:49:12.473Z,98470.00
2023-11-18T07:51:41.995Z,98484.38
2023-11-18T07:54:08.970Z,98488.84
2023-11-18T07:56:37.835Z,98484.38
2023-11-18T07:59:04.933Z,98487.84
2023-11-18T08:01:34.823Z,98488.69
2023-11-18T08:04:01.665Z,98489.50
2023-11-18T08:06:28.385Z,98483.19
2023-11-18T08:08:55.688Z,98481.25
2023-11-18T08:11:22.420Z,98496.34
2023-11-18T08:13:49.357Z,98499.09
2023-11-18T08:16:17.248Z,98501.88
2023-11-18T08:18:46.284Z,98506.53
2023-11-18T08:21:14.409Z,98508.59
2023-11-18T08:23:45.328Z,98515.13
2023-11-18T08:26:13.609Z,98517.91
2023-11-18T08:28:42.369Z,98519.97
2023-11-18T08:31:10.602Z,98525.56
2023-11-18T08:33:37.350Z,98536.38
2023-11-18T08:36:04.432Z,98536.44
2023-11-18T08:38:31.142Z,98533.78
2023-11-18T08:40:57.920Z,98527.72
2023-11-18T08:43:24.732Z,98541.09
2023-11-18T08:45:52.679Z,98545.56
2023-11-18T08:48:20.001Z,98540.41
2023-11-18T08:50:48.170Z,98549.38
2023-11-18T08:53:19.427Z,98544.81
2023-11-18T08:55:53.636Z,98557.84
2023-11-18T08:58:23.319Z,98557.75
2023-11-18T09:01:14.056Z,98547.94
2023-11-18T09:03:44.987Z,98557.75
2023-11-18T09:06:27.302Z,98554.13
2023-11-18T09:08:55.269Z,98561.25
2023-11-18T09:11:26.296Z,98556.75
2023-11-18T09:13:55.545Z,98559.34
2023-11-18T09:16:34.546Z,98566.28
2023-11-18T09:19:04.321Z,98577.78
2023-11-18T09:21:36.672Z,98580.50
2023-11-18T09:24:06.117Z,98578.53
2023-11-18T09:26:32.875Z,98582.84
2023-11-18T09:29:02.821Z,98583.72
2023-11-18T09:31:30.171Z,98589.06
2023-11-18T09:33:59.979Z,98586.38
2023-11-18T09:36:30.074Z,98585.44
2023-11-18T09:38:58.029Z,98595.97
2023-11-18T09:41:29.636Z,98598.69
2023-11-18T09:43:59.233Z,98607.06
2023-11-18T09:46:34.815Z,98616.28
2023-11-18T09:49:18.839Z,98619.31
2023-11-18T09:51:49.778Z,98619.59
2023-11-18T09:54:34.432Z,98621.31
2023-11-18T09:57:16.831Z,98627.53
2023-11-18T10:00:00.490Z,98631.97
2023-11-18T10:02:27.533Z,98634.88
2023-11-18T10:05:01.709Z,98640.13
2023-11-18T10:07:34.240Z,98641.84
2023-11-18T10:10:03.143Z,98645.56
2023-11-18T10:12:31.072Z,98653.97
2023-11-18T10:15:01.544Z,98650.72
2023-11-18T10:17:28.844Z,98652.16
2023-11-18T10:20:14.080Z,98653.53
2023-11-18T10:22:44.299Z,98639.50
2023-11-18T10:25:11.047Z,98652.81
2023-11-18T10:27:39.960Z,98659.00
2023-11-18T10:30:20.432Z,98660.75
2023-11-18T10:33:07.228Z,98661.59
2023-11-18T10:35:36.188Z,98657.44
2023-11-18T10:38:05.986Z,98666.38
2023-11-18T10:40:37.773Z,98667.38
2023-11-18T10:43:11.747Z,98667.88
2023-11-18T10:45:45.151Z,98681.69
2023-11-18T10:48:17.979Z,98670.13
2023-11-18T10:50:49.416Z,98683.69
2023-11-18T10:53:17.805Z,98692.78
2023-11-18T10:55:45.488Z,98702.59
2023-11-18T10:58:15.633Z,98694.50
2023-11-18T11:00:56.960Z,98708.00
2023-11-18T11:03:26.624Z,98704.78
2023-11-18T11:05:55.817Z,98705.75
2023-11-18T11:08:29.450Z,98724.25
2023-11-18T11:11:09.601Z,98723.28
2023-11-18T11:13:39.208Z,98729.41
2023-11-18T11:16:11.729Z,98722.41
2023-11-18T11:18:46.548Z,98732.06
2023-11-18T11:21:23.284Z,98724.84
2023-11-18T11:23:51.938Z,98726.53
2023-11-18T11:26:31.983Z,98732.47
2023-11-18T11:29:21.122Z,98726.06
2023-11-18T11:32:14.062Z,98732.06
2023-11-18T11:35:18.398Z,98729.38
2023-11-18T11:37:46.125Z,98737.28
2023-11-18T11:40:22.879Z,98749.56
2023-11-18T11:42:57.511Z,98746.19
2023-11-18T11:45:29.620Z,98739.38
2023-11-18T11:48:14.821Z,98750.03
2023-11-18T11:51:05.420Z,98755.31
2023-11-18T11:53:41.150Z,98759.88
2023-11-18T11:56:08.681Z,98767.75
2023-11-18T11:58:39.617Z,98761.81
2023-11-18T12:01:33.748Z,98761.00
2023-11-18T12:04:08.675Z,98769.81
2023-11-18T12:06:42.673Z,98774.06
2023-11-18T12:09:10.879Z,98779.50
2023-11-18T12:11:40.986Z,98776.84
2023-11-18T12:14:37.478Z,98777.72
2023-11-18T12:17:13.077Z,98778.53
2023-11-18T12:19:50.401Z,98778.31
2023-11-18T12:22:31.988Z,98784.38
2023-11-18T12:25:01.091Z,98790.72
2023-11-18T12:27:53.502Z,98790.78
2023-11-18T12:30:27.760Z,98780.06
2023-11-18T12:33:10.843Z,98781.50
2023-11-18T12:35:58.611Z,98785.03
2023-11-18T12:38:50.344Z,98795.78
2023-11-18T12:41:41.722Z,98792.31
2023-11-18T12:44:37.610Z,98791.59
2023-11-18T12:47:16.244Z,98801.25
2023-11-18T12:49:43.959Z,98811.06
2023-11-18T12:52:19.872Z,98805.06
2023-11-18T12:54:52.035Z,98810.41
2023-11-18T12:57:24.268Z,98814.09
2023-11-18T12:59:52.687Z,98813.47
2023-11-18T13:02:21.385Z,98811.66
2023-11-18T13:04:48.614Z,98806.22
2023-11-18T13:07:19.920Z,98823.91
2023-11-18T13:09:47.389Z,98825.75
2023-11-18T13:12:16.765Z,98824.00
2023-11-18T13:14:44.155Z,98831.06
2023-11-18T13:17:17.018Z,98831.72
2023-11-18T13:19:45.436Z,98831.63
2023-11-18T13:22:13.789Z,98838.84
2023-11-18T13:24:42.541Z,98840.72
2023-11-18T13:27:10.561Z,98842.63
2023-11-18T13:29:40.895Z,98844.25
2023-11-18T13:32:08.518Z,98849.56
2023-11-18T13:34:39.060Z,98847.97
2023-11-18T13:37:25.789Z,98863.00
2023-11-18T13:39:56.873Z,98863.16
2023-11-18T13:42:25.462Z,98859.84
2023-11-18T13:44:54.290Z,98856.34
2023-11-18T13:47:22.107Z,98864.38
2023-11-18T13:49:51.962Z,98867.06
2023-11-18T13:52:20.464Z,98869.16
2023-11-18T13:54:48.745Z,98873.88
2023-11-18T13:57:16.118Z,98875.91
2023-11-18T13:59:45.953Z,98881.22
2023-11-18T14:02:13.042Z,98875.91
2023-11-18T14:04:41.091Z,98876.72
2023-11-18T14:07:10.611Z,98868.66
2023-11-18T14:09:41.232Z,98881.84
2023-11-18T14:12:09.569Z,98881.81
2023-11-18T14:14:36.934Z,98879.16
2023-11-18T14:17:04.126Z,98884.53
2023-11-18T14:19:31.460Z,98879.97
2023-11-18T14:21:58.622Z,98880.50
2023-11-18T14:24:29.005Z,98884.66
2023-11-18T14:26:58.001Z,98897.81
2023-11-18T14:29:28.340Z,98896.88
2023-11-18T14:31:56.390Z,98894.91
2023-11-18T14:34:23.270Z,98878.91
2023-11-18T14:36:50.315Z,98878.97
2023-11-18T14:39:21.660Z,98882.53
2023-11-18T14:41:48.784Z,98880.81
2023-11-18T14:44:15.686Z,98875.63
2023-11-18T14:46:42.629Z,98881.13
2023-11-18T14:49:11.506Z,98886.44
2023-11-18T14:51:38.753Z,98880.88
2023-11-18T14:54:07.165Z,98889.56
2023-11-18T14:56:36.338Z,98882.97
2023-11-18T14:59:06.454Z,98885.47
2023-11-18T15:01:33.756Z,98897.84
2023-11-18T15:04:00.753Z,98907.72
2023-11-18T15:06:28.571Z,98898.03
2023-11-18T15:08:58.299Z,98891.88
2023-11-18T15:11:25.594Z,98895.59
2023-11-18T15:13:54.890Z,98899.25
2023-11-18T15:16:22.043Z,98906.41
2023-11-18T15:18:49.123Z,98900.22
2023-11-18T15:21:16.854Z,98912.66
2023-11-18T15:23:44.471Z,98910.00
2023-11-18T15:26:11.384Z,98919.88
2023-11-18T15:28:38.295Z,98918.94
2023-11-18T15:31:12.214Z,98914.66
2023-11-18T15:33:40.108Z,98926.16
2023-11-18T15:36:08.832Z,98934.09
2023-11-18T15:38:37.018Z,98934.84
2023-11-18T15:41:04.300Z,98928.53
2023-11-18T15:43:31.462Z,98932.97
2023-11-18T15:46:00.716Z,98929.47
2023-11-18T15:48:30.806Z,98935.72
2023-11-18T15:50:59.321Z,98938.53
2023-11-18T15:53:29.219Z,98936.94
2023-11-18T15:55:56.325Z,98942.28
2023-11-18T15:58:27.369Z,98935.13
2023-11-18T16:00:54.496Z,98933.25
2023-11-18T16:03:21.531Z,98931.63
2023-11-18T16:05:48.426Z,98932.59
2023-11-18T16:08:15.223Z,98938.72
2023-11-18T16:10:43.981Z,98938.69
2023-11-18T16:13:11.440Z,98937.75
2023-11-18T16:15:38.204Z,98940.28
2023-11-18T16:18:05.635Z,98939.50
2023-11-18T16:20:36.242Z,98930.72
2023-11-18T16:23:04.927Z,98933.53
2023-11-18T16:25:33.413Z,98943.25
2023-11-18T16:28:01.353Z,98932.59
2023-11-18T16:30:32.035Z,98936.13
2023-11-18T16:33:02.832Z,98941.56
2023-11-18T16:35:31.049Z,98941.63
2023-11-18T16:38:01.457Z,98945.19
2023-11-18T16:40:29.945Z,98926.69
2023-11-18T16:42:57.352Z,98926.81
2023-11-18T16:45:26.160Z,98930.59
2023-11-18T16:47:56.574Z,98927.88
2023-11-18T16:50:25.787Z,98933.09
2023-11-18T16:52:53.376Z,98935.53
2023-11-18T16:55:22.900Z,98932.63
2023-11-18T16:57:54.146Z,98945.06
2023-11-18T17:00:26.585Z,98943.22
2023-11-18T17:02:59.507Z,98945.72
2023-11-18T17:05:31.690Z,98939.63
2023-11-18T17:08:00.617Z,98949.47
2023-11-18T17:10:29.258Z,98945.09
2023-11-18T17:12:57.680Z,98961.88
2023-11-18T17:15:24.773Z,98967.97
2023-11-18T17:18:02.700Z,98966.91
2023-11-18T17:20:31.352Z,98973.78
2023-11-18T17:22:58.168Z,98974.63
2023-11-18T17:25:27.165Z,98974.75
2023-11-18T17:27:56.811Z,98976.63
2023-11-18T17:30:23.791Z,98962.59
2023-11-18T17:32:54.165Z,98963.47
2023-11-18T17:35:21.915Z,98965.25
2023-11-18T17:37:49.145Z,98972.22
2023-11-18T17:40:17.042Z,98970.38
2023-11-18T17:42:46.061Z,98973.91
2023-11-18T17:45:14.544Z,98973.81
2023-11-18T17:47:45.860Z,98978.25
2023-11-18T17:50:15.587Z,98979.22
2023-11-18T17:52:47.929Z,98976.53
2023-11-18T17:55:18.467Z,98975.47
2023-11-18T17:57:46.026Z,98973.63
2023-11-18T18:00:14.739Z,98982.38
2023-11-18T18:02:43.544Z,98988.41
2023-11-18T18:05:13.926Z,98992.78
2023-11-18T18:07:41.566Z,98982.97
2023-11-18T18:10:09.941Z,98982.97
2023-11-18T18:12:37.796Z,98974.06
2023-11-18T18:15:09.404Z,98980.06
2023-11-18T18:17:38.350Z,98970.25
2023-11-18T18:20:10.269Z,98960.50
2023-11-18T18:22:39.281Z,98959.56
2023-11-18T18:25:07.691Z,98956.88
2023-11-18T18:27:35.426Z,98943.44
2023-11-18T18:30:02.963Z,98951.47
2023-11-18T18:32:30.690Z,98949.63
2023-11-18T18:34:59.117Z,98945.03
2023-11-18T18:37:28.033Z,98958.94
2023-11-18T18:39:57.855Z,98953.50
2023-11-18T18:42:27.718Z,98940.16
2023-11-18T18:44:56.434Z,98944.59
2023-11-18T18:47:24.619Z,98929.56
2023-11-18T18:49:52.759Z,98925.09
2023-11-18T18:52:19.641Z,98923.31
2023-11-18T18:54:46.732Z,98938.34
2023-11-18T18:57:13.794Z,98946.34
2023-11-18T18:59:40.886Z,98934.06
2023-11-18T19:02:09.367Z,98931.63
2023-11-18T19:04:36.258Z,98932.69
2023-11-18T19:07:02.995Z,98940.53
2023-11-18T19:09:31.092Z,98943.97
2023-11-18T19:11:58.283Z,98941.34
2023-11-18T19:14:25.167Z,98932.44
2023-11-18T19:16:52.152Z,98937.53
2023-11-18T19:19:19.918Z,98938.16
2023-11-18T19:21:48.434Z,98932.66
2023-11-18T19:24:15.784Z,98929.84
2023-11-18T19:26:42.592Z,98916.28
2023-11-18T19:29:09.419Z,98920.53
2023-11-18T19:31:36.246Z,98918.72
2023-11-18T19:34:03.165Z,98907.22
2023-11-18T19:36:29.947Z,98906.38
2023-11-18T19:38:56.882Z,98902.81
2023-11-18T19:41:23.778Z,98900.97
2023-11-18T19:43:51.849Z,98900.88
2023-11-18T19:46:18.849Z,98897.28
2023-11-18T19:48:45.600Z,98892.78
2023-11-18T19:51:12.510Z,98900.63
2023-11-18T19:53:39.608Z,98900.53
2023-11-18T19:56:08.141Z,98908.47
2023-11-18T19:58:37.361Z,98908.34
2023-11-18T20:01:04.351Z,98908.34
2023-11-18T20:03:31.548Z,98911.88
2023-11-18T20:05:58.332Z,98905.75
2023-11-18T20:08:25.807Z,98898.78
2023-11-18T20:10:52.759Z,98888.13
2023-11-18T20:13:21.303Z,98895.22
2023-11-18T20:15:48.060Z,98903.22
2023-11-18T20:18:14.889Z,98906.91
2023-11-18T20:20:42.841Z,98899.00
2023-11-18T20:23:10.615Z,98907.94
2023-11-18T20:25:37.520Z,98900.81
2023-11-18T20:28:04.320Z,98897.16
2023-11-18T20:30:34.646Z,98890.81
2023-11-18T20:33:02.696Z,98895.09
2023-11-18T20:35:29.550Z,98889.72
2023-11-18T20:37:57.750Z,98884.34
2023-11-18T20:40:24.622Z,98879.84
2023-11-18T20:42:53.375Z,98872.59
2023-11-18T20:45:20.425Z,98869.00
2023-11-18T20:47:48.178Z,98861.00
2023-11-18T20:50:15.900Z,98857.44
2023-11-18T20:52:43.346Z,98850.25
2023-11-18T20:55:10.470Z,98843.28
2023-11-18T20:57:40.752Z,98849.56
2023-11-18T21:00:09.214Z,98860.34
2023-11-18T21:02:37.559Z,98854.25
2023-11-18T21:05:06.920Z,98848.97
2023-11-18T21:07:34.226Z,98839.19
2023-11-18T21:10:01.048Z,98829.44
2023-11-18T21:12:27.807Z,98823.16
2023-11-18T21:14:54.941Z,98818.69
2023-11-18T21:17:26.417Z,98831.09
2023-11-18T21:19:54.260Z,98832.84
2023-11-18T21:22:21.184Z,98835.44
2023-11-18T21:24:48.519Z,98831.00
2023-11-18T21:27:16.529Z,98830.06
2023-11-18T21:29:44.401Z,98829.16
2023-11-18T21:32:12.390Z,98824.69
2023-11-18T21:34:42.356Z,98815.75
2023-11-18T21:37:14.289Z,98813.97
2023-11-18T21:39:41.202Z,98808.53
2023-11-18T21:42:09.453Z,98804.09
2023-11-18T21:44:37.109Z,98806.66
2023-11-18T21:47:05.133Z,98800.53
2023-11-18T21:49:33.029Z,98799.06
2023-11-18T21:52:01.768Z,98793.03
2023-11-18T21:54:31.941Z,98794.06
2023-11-18T21:56:58.983Z,98801.25
2023-11-18T21:59:27.396Z,98802.22
2023-11-18T22:01:56.286Z,98798.72
2023-11-18T22:04:24.017Z,98808.53
2023-11-18T22:06:54.372Z,98818.53
2023-11-18T22:09:25.029Z,98820.72
2023-11-18T22:11:52.134Z,98816.44
2023-11-18T22:14:19.793Z,98819.09
2023-11-18T22:16:47.186Z,98812.88
2023-11-18T22:19:16.555Z,98810.25
2023-11-18T22:21:44.858Z,98806.88
2023-11-18T22:24:11.669Z,98806.13
2023-11-18T22:26:39.141Z,98808.00
2023-11-18T22:29:06.153Z,98809.97
2023-11-18T22:31:33.046Z,98792.47
2023-11-18T22:34:00.365Z,98789.06
2023-11-18T22:36:27.979Z,98788.31
2023-11-18T22:38:54.717Z,98775.97
2023-11-18T22:41:27.933Z,98764.47
2023-11-18T22:43:54.704Z,98762.94
2023-11-18T22:46:21.686Z,98756.75
2023-11-18T22:48:50.321Z,98750.69
2023-11-18T22:51:17.848Z,98749.38
2023-11-18T22:53:45.658Z,98752.50
2023-11-18T22:56:15.508Z,98755.47
2023-11-18T22:58:42.953Z,98748.78
2023-11-18T23:01:13.044Z,98756.03
2023-11-18T23:03:40.402Z,98755.22
2023-11-18T23:06:10.785Z,98757.97
2023-11-18T23:08:38.054Z,98757.09
2023-11-18T23:11:05.181Z,98748.31
2023-11-18T23:13:31.986Z,98748.44
2023-11-18T23:16:01.918Z,98745.81
2023-11-18T23:18:30.728Z,98740.59
2023-11-18T23:20:59.017Z,98728.34
2023-11-18T23:23:26.216Z,98731.94
2023-11-18T23:25:53.255Z,98728.44
2023-11-18T23:28:20.194Z,98727.53
2023-11-18T23:30:51.595Z,98734.63
2023-11-18T23:33:19.852Z,98735.44
2023-11-18T23:35:46.646Z,98728.34
2023-11-18T23:38:13.349Z,98723.03
2023-11-18T23:40:45.438Z,98717.63
2023-11-18T23:43:12.225Z,98717.47
2023-11-18T23:45:42.609Z,98706.72
2023-11-18T23:48:12.980Z,98703.88
2023-11-18T23:50:39.745Z,98704.59
2023-11-18T23:53:08.188Z,98704.44
2023-11-18T23:55:34.955Z,98698.09
2023-11-18T23:58:02.280Z,98709.41
